createdAt,value
2018-08-16T00:00:55.298Z,69.44
2018-08-16T00:03:07.670Z,70.01
2018-08-16T00:05:19.961Z,69.78
2018-08-16T00:07:32.133Z,69.97
2018-08-16T00:09:44.401Z,69.27
2018-08-16T00:11:56.637Z,69.42
2018-08-16T00:14:08.836Z,70.24
2018-08-16T00:16:21.074Z,71.03
2018-08-16T00:18:33.285Z,70.79
2018-08-16T00:20:45.514Z,71.23
2018-08-16T00:22:57.714Z,71.31
2018-08-16T00:25:10.522Z,71.56
2018-08-16T00:27:22.740Z,72.15
2018-08-16T00:29:34.911Z,72.09
2018-08-16T00:31:47.194Z,72.00
2018-08-16T00:33:59.360Z,71.85
2018-08-16T00:36:11.561Z,71.85
2018-08-16T00:38:23.734Z,71.90
2018-08-16T00:40:35.928Z,71.24
2018-08-16T00:42:48.130Z,71.99
2018-08-16T00:45:00.367Z,71.18
2018-08-16T00:47:12.562Z,70.88
2018-08-16T00:49:24.741Z,70.94
2018-08-16T00:51:37.043Z,70.96
2018-08-16T00:53:49.224Z,71.76
2018-08-16T00:56:01.375Z,72.46
2018-08-16T00:58:13.598Z,72.19
2018-08-16T01:00:25.798Z,72.61
2018-08-16T01:02:38.014Z,72.41
2018-08-16T01:04:50.458Z,72.73
2018-08-16T01:07:02.776Z,72.89
2018-08-16T01:09:14.982Z,73.04
2018-08-16T01:11:27.151Z,72.03
2018-08-16T01:13:39.362Z,71.69
2018-08-16T01:15:51.534Z,72.59
2018-08-16T01:18:03.778Z,72.29
2018-08-16T01:20:16.109Z,73.06
2018-08-16T01:22:28.263Z,71.97
2018-08-16T01:24:40.437Z,72.43
2018-08-16T01:26:52.611Z,72.68
2018-08-16T01:29:04.910Z,72.09
2018-08-16T01:31:17.155Z,72.46
2018-08-16T01:33:29.523Z,72.79
2018-08-16T01:35:41.815Z,73.11
2018-08-16T01:37:53.925Z,73.34
2018-08-16T01:40:07.006Z,73.23
2018-08-16T01:42:19.260Z,73.38
2018-08-16T01:44:31.443Z,73.29
2018-08-16T01:49:00.274Z,73.66
2018-08-16T01:51:12.470Z,73.54
2018-08-16T01:53:24.677Z,73.87
2018-08-16T01:55:36.895Z,73.50
2018-08-16T01:57:49.068Z,73.54
2018-08-16T02:00:01.330Z,73.52
2018-08-16T02:02:13.535Z,72.88
2018-08-16T02:04:25.852Z,73.69
2018-08-16T02:06:38.268Z,73.51
2018-08-16T02:08:50.506Z,74.00
2018-08-16T02:11:02.729Z,74.26
2018-08-16T02:13:14.951Z,74.51
2018-08-16T02:15:27.160Z,73.63
2018-08-16T02:17:39.476Z,74.47
2018-08-16T02:19:51.695Z,73.62
2018-08-16T02:22:03.939Z,74.16
2018-08-16T02:24:16.215Z,73.70
2018-08-16T02:26:28.390Z,73.49
2018-08-16T02:28:40.598Z,73.63
2018-08-16T02:30:52.895Z,74.35
2018-08-16T02:33:05.147Z,74.47
2018-08-16T02:35:17.350Z,73.88
2018-08-16T02:37:29.604Z,74.62
2018-08-16T02:39:41.811Z,74.33
2018-08-16T02:41:54.026Z,74.40
2018-08-16T02:44:06.863Z,73.78
2018-08-16T02:46:19.091Z,74.11
2018-08-16T02:48:31.590Z,75.10
2018-08-16T02:50:43.831Z,74.30
2018-08-16T02:52:56.082Z,74.38
2018-08-16T02:55:08.293Z,75.04
2018-08-16T02:57:20.561Z,73.57
2018-08-16T02:59:32.794Z,74.21
2018-08-16T03:01:45.142Z,74.35
2018-08-16T03:03:57.354Z,74.14
2018-08-16T03:06:09.606Z,74.84
2018-08-16T03:08:21.855Z,74.81
2018-08-16T03:10:34.048Z,75.10
2018-08-16T03:12:46.359Z,74.38
2018-08-16T03:14:58.567Z,74.81
2018-08-16T03:17:10.818Z,74.64
2018-08-16T03:19:23.018Z,74.99
2018-08-16T03:21:35.271Z,75.10
2018-08-16T03:23:47.504Z,75.37
2018-08-16T03:25:59.719Z,75.29
2018-08-16T03:28:11.918Z,75.58
2018-08-16T03:30:24.122Z,74.34
2018-08-16T03:32:36.387Z,74.55
2018-08-16T03:34:48.588Z,75.34
2018-08-16T03:37:00.943Z,74.70
2018-08-16T03:39:13.151Z,75.64
2018-08-16T03:41:25.345Z,75.75
2018-08-16T03:43:37.554Z,75.75
2018-08-16T03:45:49.802Z,75.05
2018-08-16T03:48:02.096Z,75.12
2018-08-16T03:50:14.293Z,75.04
2018-08-16T03:52:26.478Z,75.60
2018-08-16T03:54:38.758Z,75.12
2018-08-16T03:56:50.978Z,75.66
2018-08-16T03:59:03.206Z,75.82
2018-08-16T04:01:15.552Z,74.79
2018-08-16T04:03:27.796Z,75.59
2018-08-16T04:05:40.112Z,75.53
2018-08-16T04:07:52.363Z,76.05
2018-08-16T04:10:04.815Z,76.13
2018-08-16T04:12:17.007Z,76.04
2018-08-16T04:14:29.226Z,75.99
2018-08-16T04:16:41.424Z,75.25
2018-08-16T04:18:53.622Z,75.06
2018-08-16T04:21:05.879Z,74.91
2018-08-16T04:23:18.102Z,75.35
2018-08-16T04:25:30.378Z,74.85
2018-08-16T04:27:42.608Z,75.71
2018-08-16T04:29:54.855Z,75.47
2018-08-16T04:32:07.094Z,75.13
2018-08-16T04:34:19.293Z,75.49
2018-08-16T04:36:31.514Z,75.25
2018-08-16T04:38:43.697Z,75.97
2018-08-16T04:40:57.347Z,75.16
2018-08-16T04:43:09.557Z,75.14
2018-08-16T04:45:21.826Z,75.06
2018-08-16T04:47:35.244Z,75.79
2018-08-16T04:49:47.459Z,75.60
2018-08-16T04:51:59.711Z,75.39
2018-08-16T04:54:11.898Z,75.78
2018-08-16T04:56:24.182Z,75.37
2018-08-16T04:58:37.078Z,75.20
2018-08-16T05:00:49.286Z,75.50
2018-08-16T05:03:01.531Z,75.42
2018-08-16T05:05:13.735Z,74.72
2018-08-16T05:07:26.042Z,75.37
2018-08-16T05:09:38.260Z,74.97
2018-08-16T05:11:51.986Z,74.85
2018-08-16T05:14:04.295Z,74.67
2018-08-16T05:16:17.101Z,74.45
2018-08-16T05:18:29.370Z,73.65
2018-08-16T05:20:41.574Z,73.16
2018-08-16T05:22:54.887Z,72.88
2018-08-16T05:25:07.173Z,73.34
2018-08-16T05:27:19.350Z,72.96
2018-08-16T05:29:31.555Z,71.95
2018-08-16T05:31:45.120Z,72.10
2018-08-16T05:33:57.924Z,71.61
2018-08-16T05:36:10.744Z,71.27
2018-08-16T05:38:22.966Z,71.43
2018-08-16T05:40:35.207Z,69.95
2018-08-16T05:42:47.443Z,70.18
2018-08-16T05:44:59.697Z,69.78
2018-08-16T05:47:11.899Z,69.93
2018-08-16T05:49:24.186Z,69.84
2018-08-16T05:51:37.093Z,69.27
2018-08-16T05:53:51.447Z,69.18
2018-08-16T05:56:03.711Z,68.94
2018-08-16T05:58:15.988Z,67.22
2018-08-16T06:00:28.191Z,66.66
2018-08-16T06:02:40.514Z,66.54
2018-08-16T06:04:52.731Z,65.44
2018-08-16T06:07:04.921Z,64.23
2018-08-16T06:09:18.764Z,63.83
2018-08-16T06:11:31.531Z,62.87
2018-08-16T06:13:44.518Z,63.57
2018-08-16T06:15:56.778Z,62.31
2018-08-16T06:18:09.203Z,61.29
2018-08-16T06:20:21.453Z,61.08
2018-08-16T06:22:33.714Z,60.42
2018-08-16T06:24:45.946Z,60.42
2018-08-16T06:26:58.180Z,58.84
2018-08-16T06:29:10.366Z,58.78
2018-08-16T06:31:22.622Z,58.21
2018-08-16T06:33:34.854Z,57.94
2018-08-16T06:35:47.122Z,57.51
2018-08-16T06:37:59.366Z,55.89
2018-08-16T06:40:14.411Z,54.75
2018-08-16T06:42:26.620Z,53.44
2018-08-16T06:44:38.839Z,53.11
2018-08-16T06:46:51.083Z,53.09
2018-08-16T06:49:03.342Z,52.62
2018-08-16T06:51:15.562Z,51.83
2018-08-16T06:53:28.335Z,48.93
2018-08-16T06:55:41.280Z,48.36
2018-08-16T06:57:53.510Z,48.70
2018-08-16T07:00:06.661Z,48.39
2018-08-16T07:02:18.865Z,47.58
2018-08-16T07:04:31.794Z,48.41
2018-08-16T07:06:44.062Z,46.41
2018-08-16T07:08:56.290Z,46.30
2018-08-16T07:11:08.598Z,45.38
2018-08-16T07:13:20.851Z,44.68
2018-08-16T07:15:33.099Z,44.57
2018-08-16T07:17:45.338Z,44.51
2018-08-16T07:19:57.544Z,44.03
2018-08-16T07:22:09.789Z,44.69
2018-08-16T07:24:21.980Z,43.16
2018-08-16T07:26:34.206Z,43.30
2018-08-16T07:28:46.431Z,42.86
2018-08-16T07:30:58.743Z,44.20
2018-08-16T07:33:11.001Z,42.73
2018-08-16T07:35:23.220Z,43.97
2018-08-16T07:37:35.484Z,42.90
2018-08-16T07:39:47.781Z,42.60
2018-08-16T07:42:00.032Z,42.97
2018-08-16T07:44:12.289Z,40.78
2018-08-16T07:46:24.545Z,42.06
2018-08-16T07:48:36.761Z,39.55
2018-08-16T07:50:49.001Z,39.48
2018-08-16T07:53:01.247Z,40.23
2018-08-16T07:55:13.469Z,39.77
2018-08-16T07:57:25.662Z,40.76
2018-08-16T07:59:37.907Z,39.57
2018-08-16T08:01:50.112Z,38.30
2018-08-16T08:04:02.680Z,38.69
2018-08-16T08:06:14.942Z,40.20
2018-08-16T08:08:27.256Z,41.02
2018-08-16T08:10:39.531Z,40.80
2018-08-16T08:12:51.786Z,40.58
2018-08-16T08:15:05.987Z,40.19
2018-08-16T08:17:18.212Z,38.99
2018-08-16T08:19:30.468Z,39.46
2018-08-16T08:21:42.727Z,38.31
2018-08-16T08:23:54.961Z,37.79
2018-08-16T08:26:07.355Z,39.23
2018-08-16T08:28:19.608Z,38.37
2018-08-16T08:30:31.843Z,38.85
2018-08-16T08:32:44.172Z,39.34
2018-08-16T08:34:56.430Z,39.09
2018-08-16T08:37:20.052Z,39.50
2018-08-16T08:39:32.435Z,38.10
2018-08-16T08:41:44.731Z,39.06
2018-08-16T08:44:19.392Z,38.61
2018-08-16T08:46:31.700Z,35.86
2018-08-16T08:48:43.898Z,38.77
2018-08-16T08:50:56.114Z,38.52
2018-08-16T08:53:19.754Z,37.22
2018-08-16T08:55:43.389Z,37.52
2018-08-16T08:58:07.038Z,37.85
2018-08-16T09:00:19.302Z,37.15
2018-08-16T09:02:31.608Z,37.29
2018-08-16T09:04:43.913Z,37.59
2018-08-16T09:06:56.228Z,35.66
2018-08-16T09:09:08.942Z,35.64
2018-08-16T09:11:32.528Z,35.90
2018-08-16T09:13:58.595Z,36.16
2018-08-16T09:16:19.383Z,35.53
2018-08-16T09:18:32.150Z,35.85
2018-08-16T09:20:46.588Z,35.92
2018-08-16T09:22:58.836Z,36.16
2018-08-16T09:25:11.077Z,35.00
2018-08-16T09:27:23.348Z,35.94
2018-08-16T09:29:54.392Z,35.67
2018-08-16T09:32:17.988Z,35.50
2018-08-16T09:34:30.215Z,36.25
2018-08-16T09:36:42.442Z,34.97
2018-08-16T09:38:55.382Z,34.78
2018-08-16T09:41:07.619Z,32.74
2018-08-16T09:43:19.880Z,34.65
2018-08-16T09:46:47.288Z,32.97
2018-08-16T09:48:59.514Z,32.36
2018-08-16T09:51:11.781Z,32.50
2018-08-16T09:53:24.043Z,32.50
2018-08-16T09:55:36.339Z,31.58
2018-08-16T09:57:48.644Z,32.53
2018-08-16T10:00:00.910Z,30.94
2018-08-16T10:02:14.800Z,31.88
2018-08-16T10:04:27.253Z,32.68
2018-08-16T10:06:40.423Z,32.26
2018-08-16T10:08:52.667Z,31.54
2018-08-16T10:11:04.880Z,31.59
2018-08-16T10:13:17.167Z,31.76
2018-08-16T10:15:29.463Z,31.12
2018-08-16T10:17:41.659Z,31.71
2018-08-16T10:19:53.940Z,30.92
2018-08-16T10:22:06.268Z,30.77
2018-08-16T10:24:18.586Z,30.08
2018-08-16T10:26:30.835Z,30.98
2018-08-16T10:28:43.642Z,31.35
2018-08-16T10:30:55.870Z,32.03
2018-08-16T10:33:08.133Z,30.66
2018-08-16T10:35:20.423Z,31.21
2018-08-16T10:37:32.702Z,31.21
2018-08-16T10:39:44.931Z,30.01
2018-08-16T10:41:57.150Z,31.96
2018-08-16T10:44:09.623Z,30.51
2018-08-16T10:46:21.963Z,30.72
2018-08-16T10:48:34.209Z,31.28
2018-08-16T10:50:46.474Z,31.02
2018-08-16T10:52:58.674Z,29.66
2018-08-16T10:55:10.970Z,30.18
2018-08-16T10:57:23.188Z,31.24
2018-08-16T10:59:35.454Z,30.03
2018-08-16T11:01:47.724Z,30.27
2018-08-16T11:04:00.027Z,30.94
2018-08-16T11:06:12.275Z,30.94
2018-08-16T11:08:25.020Z,29.97
2018-08-16T11:10:37.290Z,31.45
2018-08-16T11:12:49.508Z,31.96
2018-08-16T11:15:01.696Z,30.88
2018-08-16T11:17:13.974Z,30.72
2018-08-16T11:19:26.239Z,29.09
2018-08-16T11:21:38.494Z,28.39
2018-08-16T11:23:50.738Z,28.84
2018-08-16T11:26:03.023Z,30.14
2018-08-16T11:28:15.259Z,29.35
2018-08-16T11:30:27.499Z,29.92
2018-08-16T11:32:39.746Z,30.70
2018-08-16T11:34:52.029Z,30.56
2018-08-16T11:37:04.357Z,30.50
2018-08-16T11:39:16.583Z,30.41
2018-08-16T11:41:28.947Z,30.12
2018-08-16T11:43:41.147Z,30.23
2018-08-16T11:45:54.215Z,30.66
2018-08-16T11:48:06.534Z,29.62
2018-08-16T11:50:18.749Z,31.45
2018-08-16T11:52:30.997Z,30.80
2018-08-16T11:54:43.570Z,30.53
2018-08-16T11:56:55.830Z,30.20
2018-08-16T11:59:08.074Z,29.85
2018-08-16T12:01:20.326Z,29.75
2018-08-16T12:03:32.571Z,29.48
2018-08-16T12:05:44.762Z,30.47
2018-08-16T12:07:57.762Z,30.88
2018-08-16T12:10:09.979Z,30.58
2018-08-16T12:12:22.256Z,30.01
2018-08-16T12:14:34.501Z,28.19
2018-08-16T12:16:46.743Z,29.08
2018-08-16T12:18:58.990Z,29.69
2018-08-16T12:21:11.253Z,28.45
2018-08-16T12:23:23.463Z,28.92
2018-08-16T12:25:35.732Z,29.19
2018-08-16T12:27:47.930Z,31.19
2018-08-16T12:30:00.160Z,30.66
2018-08-16T12:32:12.387Z,30.06
2018-08-16T12:34:24.619Z,29.12
2018-08-16T12:36:36.858Z,30.16
2018-08-16T12:38:49.069Z,29.96
2018-08-16T12:41:01.824Z,30.52
2018-08-16T12:43:13.963Z,28.54
2018-08-16T12:45:26.193Z,28.99
2018-08-16T12:47:38.461Z,30.37
2018-08-16T12:49:50.691Z,30.28
2018-08-16T12:52:02.923Z,29.65
2018-08-16T12:54:15.175Z,29.79
2018-08-16T12:56:27.426Z,30.07
2018-08-16T12:58:39.661Z,29.32
2018-08-16T13:00:51.926Z,29.41
2018-08-16T13:03:04.166Z,30.19
2018-08-16T13:05:16.858Z,28.96
2018-08-16T13:07:29.116Z,29.76
2018-08-16T13:09:41.317Z,29.38
2018-08-16T13:11:53.578Z,30.31
2018-08-16T13:14:05.798Z,29.90
2018-08-16T13:16:18.059Z,28.68
2018-08-16T13:18:30.367Z,28.99
2018-08-16T13:20:42.624Z,30.63
2018-08-16T13:22:54.875Z,30.01
2018-08-16T13:25:07.856Z,30.14
2018-08-16T13:27:20.127Z,28.73
2018-08-16T13:29:32.366Z,30.18
2018-08-16T13:31:44.611Z,29.98
2018-08-16T13:33:56.883Z,29.10
2018-08-16T13:36:09.104Z,29.44
2018-08-16T13:38:21.340Z,30.04
2018-08-16T13:40:33.537Z,29.87
2018-08-16T13:42:45.789Z,30.04
2018-08-16T13:44:57.995Z,30.45
2018-08-16T13:47:10.187Z,30.13
2018-08-16T13:49:22.452Z,30.40
2018-08-16T13:51:34.793Z,30.13
2018-08-16T13:53:47.046Z,30.83
2018-08-16T13:55:59.315Z,30.44
2018-08-16T13:58:11.547Z,30.21
2018-08-16T14:00:23.829Z,30.93
2018-08-16T14:02:36.107Z,29.48
2018-08-16T14:04:48.315Z,29.65
2018-08-16T14:07:00.574Z,30.64
2018-08-16T14:09:12.795Z,29.98
2018-08-16T14:11:25.003Z,30.98
2018-08-16T14:13:37.214Z,31.54
2018-08-16T14:15:49.534Z,31.42
2018-08-16T14:18:01.792Z,31.57
2018-08-16T14:20:14.051Z,31.58
2018-08-16T14:22:26.300Z,31.08
2018-08-16T14:24:38.568Z,30.95
2018-08-16T14:26:50.811Z,30.21
2018-08-16T14:29:03.127Z,29.57
2018-08-16T14:31:15.385Z,29.28
2018-08-16T14:33:27.604Z,30.24
2018-08-16T14:35:39.854Z,30.23
2018-08-16T14:37:52.043Z,30.46
2018-08-16T14:40:04.903Z,30.89
2018-08-16T14:42:17.163Z,31.55
2018-08-16T14:44:29.423Z,31.63
2018-08-16T14:46:41.734Z,31.05
2018-08-16T14:48:53.931Z,31.25
2018-08-16T14:51:06.128Z,31.10
2018-08-16T14:53:18.373Z,31.19
2018-08-16T14:55:30.577Z,30.19
2018-08-16T14:57:42.900Z,30.49
2018-08-16T14:59:55.118Z,30.64
2018-08-16T15:02:07.358Z,31.35
2018-08-16T15:04:19.596Z,29.78
2018-08-16T15:06:31.837Z,30.89
2018-08-16T15:08:44.078Z,30.63
2018-08-16T15:10:56.355Z,29.70
2018-08-16T15:13:08.560Z,31.10
2018-08-16T15:15:20.747Z,30.97
2018-08-16T15:17:32.980Z,30.33
2018-08-16T15:19:45.323Z,32.94
2018-08-16T15:21:57.631Z,31.37
2018-08-16T15:24:09.867Z,31.50
2018-08-16T15:26:22.054Z,31.78
2018-08-16T15:28:34.320Z,30.74
2018-08-16T15:30:46.615Z,30.70
2018-08-16T15:32:58.859Z,30.31
2018-08-16T15:35:11.107Z,30.21
2018-08-16T15:37:23.313Z,30.46
2018-08-16T15:39:35.608Z,30.52
2018-08-16T15:41:47.788Z,30.46
2018-08-16T15:44:00.059Z,30.54
2018-08-16T15:46:12.311Z,30.49
2018-08-16T15:48:24.488Z,29.92
2018-08-16T15:50:36.692Z,30.49
2018-08-16T15:52:48.910Z,30.87
2018-08-16T15:55:01.143Z,30.00
2018-08-16T15:57:13.346Z,30.13
2018-08-16T15:59:25.557Z,30.92
2018-08-16T16:01:37.795Z,30.44
2018-08-16T16:03:50.023Z,30.29
2018-08-16T16:06:02.325Z,30.19
2018-08-16T16:08:14.511Z,30.51
2018-08-16T16:10:26.724Z,30.11
2018-08-16T16:12:38.967Z,30.74
2018-08-16T16:14:51.138Z,30.40
2018-08-16T16:17:03.856Z,29.97
2018-08-16T16:19:16.067Z,30.68
2018-08-16T16:21:28.290Z,30.88
2018-08-16T16:23:40.509Z,30.70
2018-08-16T16:25:52.711Z,30.84
2018-08-16T16:28:05.262Z,31.37
2018-08-16T16:30:17.460Z,31.20
2018-08-16T16:32:29.700Z,30.55
2018-08-16T16:34:41.915Z,31.13
2018-08-16T16:36:54.113Z,30.82
2018-08-16T16:39:09.207Z,30.56
2018-08-16T16:41:21.431Z,30.39
2018-08-16T16:43:33.658Z,30.56
2018-08-16T16:45:45.913Z,30.66
2018-08-16T16:47:58.123Z,30.33
2018-08-16T16:50:10.373Z,30.77
2018-08-16T16:52:22.567Z,30.15
2018-08-16T16:54:34.816Z,30.24
2018-08-16T16:56:47.075Z,30.54
2018-08-16T16:58:59.306Z,30.53
2018-08-16T17:01:12.037Z,30.48
2018-08-16T17:03:24.273Z,30.54
2018-08-16T17:05:36.547Z,30.41
2018-08-16T17:07:48.744Z,30.67
2018-08-16T17:10:01.058Z,30.80
2018-08-16T17:12:13.294Z,30.82
2018-08-16T17:14:25.508Z,31.08
2018-08-16T17:16:37.707Z,30.95
2018-08-16T17:18:49.926Z,31.16
2018-08-16T17:21:02.172Z,30.96
2018-08-16T17:23:14.362Z,31.13
2018-08-16T17:25:26.590Z,31.50
2018-08-16T17:27:38.791Z,31.82
2018-08-16T17:29:50.990Z,31.79
2018-08-16T17:32:03.341Z,31.91
2018-08-16T17:34:15.538Z,31.42
2018-08-16T17:36:27.835Z,31.47
2018-08-16T17:38:40.030Z,31.45
2018-08-16T17:40:52.214Z,31.75
2018-08-16T17:43:04.847Z,32.33
2018-08-16T17:45:17.087Z,32.60
2018-08-16T17:47:29.326Z,33.25
2018-08-16T17:49:41.510Z,33.64
2018-08-16T17:51:53.773Z,33.91
2018-08-16T17:54:06.123Z,34.29
2018-08-16T17:56:18.337Z,35.00
2018-08-16T17:58:30.667Z,35.82
2018-08-16T18:00:43.840Z,36.50
2018-08-16T18:02:56.106Z,36.84
2018-08-16T18:05:08.299Z,36.93
2018-08-16T18:07:20.528Z,37.98
2018-08-16T18:09:32.813Z,38.04
2018-08-16T18:11:45.101Z,38.08
2018-08-16T18:13:57.480Z,38.62
2018-08-16T18:16:09.702Z,38.83
2018-08-16T18:18:21.909Z,39.14
2018-08-16T18:20:34.178Z,39.46
2018-08-16T18:22:46.400Z,39.87
2018-08-16T18:24:58.642Z,40.28
2018-08-16T18:27:10.845Z,39.97
2018-08-16T18:29:23.115Z,40.32
2018-08-16T18:31:35.349Z,40.29
2018-08-16T18:33:48.578Z,40.72
2018-08-16T18:36:00.868Z,40.15
2018-08-16T18:38:13.063Z,40.79
2018-08-16T18:40:25.303Z,39.99
2018-08-16T18:42:37.606Z,41.08
2018-08-16T18:44:49.859Z,40.92
2018-08-16T18:47:01.987Z,41.76
2018-08-16T18:49:14.180Z,42.25
2018-08-16T18:51:26.871Z,42.49
2018-08-16T18:53:39.096Z,42.37
2018-08-16T18:55:52.040Z,42.99
2018-08-16T18:58:04.322Z,42.94
2018-08-16T19:00:16.575Z,43.76
2018-08-16T19:02:28.786Z,42.85
2018-08-16T19:04:41.058Z,43.24
2018-08-16T19:06:53.334Z,44.60
2018-08-16T19:09:06.255Z,44.30
2018-08-16T19:11:18.583Z,44.10
2018-08-16T19:13:30.766Z,43.67
2018-08-16T19:15:43.048Z,44.28
2018-08-16T19:17:55.286Z,43.77
2018-08-16T19:20:07.670Z,44.62
2018-08-16T19:22:19.915Z,44.82
2018-08-16T19:24:32.130Z,45.49
2018-08-16T19:26:45.688Z,44.96
2018-08-16T19:28:57.922Z,45.44
2018-08-16T19:31:10.115Z,46.13
2018-08-16T19:33:22.335Z,45.34
2018-08-16T19:35:34.821Z,46.45
2018-08-16T19:37:47.066Z,45.09
2018-08-16T19:39:59.239Z,45.12
2018-08-16T19:42:11.459Z,45.36
2018-08-16T19:44:23.626Z,46.19
2018-08-16T19:46:35.859Z,45.99
2018-08-16T19:48:48.094Z,46.71
2018-08-16T19:51:00.341Z,47.17
2018-08-16T19:53:12.603Z,47.65
2018-08-16T19:55:24.890Z,47.28
2018-08-16T19:57:37.399Z,47.20
2018-08-16T19:59:49.642Z,48.20
2018-08-16T20:02:01.883Z,47.57
2018-08-16T20:04:14.150Z,48.82
2018-08-16T20:06:26.379Z,47.72
2018-08-16T20:08:38.639Z,49.42
2018-08-16T20:10:51.033Z,49.88
2018-08-16T20:13:03.268Z,48.19
2018-08-16T20:15:15.475Z,48.14
2018-08-16T20:17:27.699Z,48.55
2018-08-16T20:19:39.991Z,48.84
2018-08-16T20:21:52.247Z,47.87
2018-08-16T20:24:04.463Z,48.60
2018-08-16T20:26:16.702Z,49.49
2018-08-16T20:28:28.946Z,49.22
2018-08-16T20:30:41.143Z,50.19
2018-08-16T20:32:53.329Z,49.52
2018-08-16T20:35:05.571Z,50.61
2018-08-16T20:37:17.785Z,50.83
2018-08-16T20:39:30.047Z,50.74
2018-08-16T20:41:42.327Z,51.48
2018-08-16T20:43:54.528Z,50.45
2018-08-16T20:46:06.755Z,50.59
2018-08-16T20:48:20.841Z,49.92
2018-08-16T20:50:33.040Z,50.61
2018-08-16T20:52:45.274Z,49.82
2018-08-16T20:54:57.495Z,50.69
2018-08-16T20:57:09.718Z,50.47
2018-08-16T20:59:21.931Z,51.15
2018-08-16T21:01:34.174Z,52.10
2018-08-16T21:03:46.440Z,51.55
2018-08-16T21:05:58.730Z,51.14
2018-08-16T21:08:10.929Z,51.35
2018-08-16T21:10:23.150Z,51.56
2018-08-16T21:12:35.371Z,51.36
2018-08-16T21:14:47.618Z,51.18
2018-08-16T21:16:59.821Z,51.97
2018-08-16T21:19:12.022Z,51.17
2018-08-16T21:21:24.294Z,51.98
2018-08-16T21:23:36.495Z,51.85
2018-08-16T21:25:48.681Z,51.46
2018-08-16T21:28:00.911Z,52.15
2018-08-16T21:30:13.157Z,52.27
2018-08-16T21:32:25.394Z,53.00
2018-08-16T21:34:37.759Z,52.47
2018-08-16T21:36:49.841Z,52.19
2018-08-16T21:39:02.129Z,51.17
2018-08-16T21:41:14.474Z,50.82
2018-08-16T21:43:26.674Z,51.53
2018-08-16T21:45:38.884Z,51.70
2018-08-16T21:47:51.159Z,51.26
2018-08-16T21:50:03.975Z,51.54
2018-08-16T21:52:16.177Z,51.77
2018-08-16T21:54:28.387Z,50.85
2018-08-16T21:56:40.658Z,51.86
2018-08-16T21:58:52.910Z,52.64
2018-08-16T22:01:06.176Z,51.25
2018-08-16T22:03:19.522Z,51.87
2018-08-16T22:05:41.987Z,51.62
2018-08-16T22:08:09.941Z,52.00
2018-08-16T22:10:22.183Z,51.97
2018-08-16T22:12:34.358Z,50.72
2018-08-16T22:14:46.561Z,51.71
2018-08-16T22:16:58.758Z,51.36
2018-08-16T22:19:10.958Z,50.10
2018-08-16T22:21:23.207Z,50.63
2018-08-16T22:23:35.482Z,52.03
2018-08-16T22:25:47.679Z,50.84
2018-08-16T22:27:59.969Z,51.94
2018-08-16T22:30:12.254Z,52.19
2018-08-16T22:32:24.474Z,51.32
2018-08-16T22:34:36.657Z,52.49
2018-08-16T22:36:48.906Z,52.11
2018-08-16T22:39:01.096Z,51.68
2018-08-16T22:41:13.343Z,51.63
2018-08-16T22:43:25.597Z,51.88
2018-08-16T22:45:37.824Z,52.05
2018-08-16T22:47:50.031Z,52.15
2018-08-16T22:50:02.288Z,53.07
2018-08-16T22:52:14.520Z,53.19
2018-08-16T22:54:26.757Z,53.43
2018-08-16T22:56:38.955Z,52.58
2018-08-16T22:58:51.186Z,53.27
2018-08-16T23:01:03.483Z,52.33
2018-08-16T23:03:15.787Z,51.11
2018-08-16T23:05:28.034Z,51.75
2018-08-16T23:07:40.231Z,51.73
2018-08-16T23:09:52.406Z,51.38
2018-08-16T23:12:04.665Z,52.79
2018-08-16T23:14:16.863Z,52.66
2018-08-16T23:16:29.075Z,51.87
2018-08-16T23:18:41.252Z,52.21
2018-08-16T23:20:53.461Z,52.94
2018-08-16T23:23:06.071Z,52.38
2018-08-16T23:25:18.287Z,52.62
2018-08-16T23:27:30.494Z,52.67
2018-08-16T23:29:42.725Z,53.37
2018-08-16T23:31:54.907Z,54.08
2018-08-16T23:34:07.166Z,54.53
2018-08-16T23:36:19.410Z,54.97
2018-08-16T23:38:31.602Z,54.38
2018-08-16T23:40:43.814Z,54.87
2018-08-16T23:42:56.017Z,54.85
2018-08-16T23:45:08.935Z,55.09
2018-08-16T23:47:22.552Z,55.47
2018-08-16T23:49:34.711Z,56.51
2018-08-16T23:51:46.914Z,55.89
2018-08-16T23:53:59.126Z,55.69
2018-08-16T23:56:11.332Z,55.95
2018-08-16T23:58:23.535Z,56.43
